Time;durP1;ratioP1;P1;durP2;ratioP2;P2;SDS_P1;SDS_P2;PMS_P1;PMS_P2;Temp;Humidity;BMP_temperature;BMP_pressure;BME280_temperature;BME280_humidity;BME280_pressure;Samples;Min_cycle;Max_cycle;Signal;HPM_P1;HPM_P2
2023/07/01 00:01:26;;;;;;;12.30;3.28;;;18.20;99.90;;;;;;5055344;28;20040;-69
2023/07/01 00:03:52;;;;;;;5.90;2.25;;;19.00;99.90;;;;;;5072119;28;20083;-69
2023/07/01 00:06:19;;;;;;;7.00;2.78;;;18.40;99.90;;;;;;5055468;28;20037;-69
2023/07/01 00:08:45;;;;;;;5.35;2.20;;;18.30;99.90;;;;;;5038267;28;20036;-68
2023/07/01 00:11:10;;;;;;;7.85;2.60;;;18.20;99.90;;;;;;5055315;28;20381;-69
2023/07/01 00:13:36;;;;;;;8.20;2.55;;;18.60;99.90;;;;;;5055603;28;20488;-68
2023/07/01 00:16:03;;;;;;;7.82;2.40;;;18.30;99.90;;;;;;5055492;28;20492;-68
2023/07/01 00:18:29;;;;;;;8.57;2.55;;;18.20;99.90;;;;;;5054772;28;20044;-68
2023/07/01 00:20:55;;;;;;;8.85;2.90;;;18.70;99.90;;;;;;5054349;28;20119;-69
2023/07/01 00:23:21;;;;;;;6.88;2.50;;;18.00;99.90;;;;;;5055188;28;20052;-69
2023/07/01 00:25:47;;;;;;;10.68;3.22;;;18.00;99.90;;;;;;5054889;28;20043;-69
2023/07/01 00:28:12;;;;;;;6.60;2.47;;;18.20;99.90;;;;;;5054479;28;20040;-68
2023/07/01 00:30:38;;;;;;;7.80;2.70;;;18.00;99.90;;;;;;5072506;28;20085;-68
2023/07/01 00:33:05;;;;;;;7.90;2.50;;;18.20;99.90;;;;;;5054739;28;20119;-69
2023/07/01 00:35:31;;;;;;;8.68;3.08;;;18.00;99.90;;;;;;5055040;28;20178;-69
2023/07/01 00:37:57;;;;;;;10.43;3.08;;;18.00;99.90;;;;;;5054340;28;20062;-68
2023/07/01 00:40:23;;;;;;;9.00;2.88;;;18.10;99.90;;;;;;5072380;28;20048;-69
2023/07/01 00:42:48;;;;;;;7.13;2.60;;;18.20;99.90;;;;;;5072560;28;20111;-69
2023/07/01 00:45:14;;;;;;;9.52;3.00;;;18.00;99.90;;;;;;5054528;28;20051;-69
2023/07/01 00:47:40;;;;;;;11.18;2.95;;;18.10;99.90;;;;;;5054847;28;20036;-68
2023/07/01 00:50:11;;;;;;;6.13;2.38;;;18.10;99.90;;;;;;5053632;28;20041;-68
2023/07/01 00:52:38;;;;;;;4.50;2.30;;;18.10;99.90;;;;;;5072525;28;20115;-68
2023/07/01 00:55:06;;;;;;;10.20;3.05;;;18.20;99.90;;;;;;5054404;28;20407;-68
2023/07/01 00:57:32;;;;;;;7.13;3.35;;;18.10;99.90;;;;;;5072389;28;20079;-68
2023/07/01 00:59:58;;;;;;;8.32;3.28;;;18.00;99.90;;;;;;5054345;28;20131;-68
2023/07/01 01:02:35;;;;;;;8.77;3.42;;;18.00;99.90;;;;;;5054890;28;20560;-69
2023/07/01 01:05:10;;;;;;;10.05;3.00;;;17.70;99.90;;;;;;5054592;28;20037;-69
2023/07/01 01:07:51;;;;;;;6.30;3.03;;;17.70;99.90;;;;;;5054757;28;20412;-69
2023/07/01 01:10:24;;;;;;;8.98;2.85;;;17.60;99.90;;;;;;5054008;28;20070;-68
2023/07/01 01:12:55;;;;;;;;;;;17.50;99.90;;;;;;5054744;28;20508;-68
2023/07/01 01:15:21;;;;;;;10.18;3.10;;;17.40;99.90;;;;;;5054050;28;19966;-68
2023/07/01 01:17:50;;;;;;;9.25;3.42;;;17.30;99.90;;;;;;5053910;28;20032;-68
2023/07/01 01:20:20;;;;;;;9.38;3.10;;;17.40;99.90;;;;;;5071754;28;20119;-68
2023/07/01 01:23:03;;;;;;;7.78;3.92;;;17.40;99.90;;;;;;5053838;28;20041;-69
2023/07/01 01:25:37;;;;;;;7.17;3.27;;;17.40;99.90;;;;;;5070592;28;20083;-68
2023/07/01 01:28:03;;;;;;;19.35;4.50;;;17.40;99.90;;;;;;5053704;28;21221;-68
2023/07/01 01:30:31;;;;;;;8.38;3.70;;;17.30;99.90;;;;;;5071612;28;20115;-68
2023/07/01 01:32:57;;;;;;;7.43;4.60;;;17.30;99.90;;;;;;5053031;28;20041;-68
2023/07/01 01:35:23;;;;;;;7.28;3.15;;;17.40;99.90;;;;;;5037294;28;20045;-69
2023/07/01 01:38:07;;;;;;;6.57;3.20;;;17.30;99.90;;;;;;5071620;28;20388;-68
2023/07/01 01:41:10;;;;;;;13.38;3.28;;;17.10;99.90;;;;;;5053611;28;20094;-68
2023/07/01 01:43:53;;;;;;;6.10;3.38;;;17.00;99.90;;;;;;5053594;28;20044;-68
2023/07/01 01:46:21;;;;;;;9.77;2.67;;;17.00;99.90;;;;;;5053933;28;20033;-68
2023/07/01 01:48:47;;;;;;;6.38;2.83;;;17.30;99.90;;;;;;5070468;28;20033;-69
2023/07/01 01:51:14;;;;;;;6.85;3.25;;;17.30;99.90;;;;;;5037102;28;20098;-68
2023/07/01 01:53:41;;;;;;;4.60;3.33;;;17.50;99.90;;;;;;5070278;28;20554;-68
2023/07/01 01:56:08;;;;;;;11.23;3.75;;;17.40;99.90;;;;;;5053612;28;20036;-68
2023/07/01 01:58:34;;;;;;;9.25;3.10;;;17.50;99.90;;;;;;5069873;28;20059;-68
2023/07/01 02:01:00;;;;;;;11.77;4.35;;;17.50;99.90;;;;;;5053171;28;20044;-68
2023/07/01 02:03:25;;;;;;;12.35;3.08;;;17.50;99.90;;;;;;5053516;28;20060;-68
2023/07/01 02:05:51;;;;;;;7.28;2.80;;;17.60;99.90;;;;;;5071469;28;20063;-68
2023/07/01 02:08:16;;;;;;;5.57;3.03;;;17.70;99.90;;;;;;5053082;28;20047;-68
2023/07/01 02:10:42;;;;;;;7.13;2.70;;;17.70;99.90;;;;;;5053131;28;20511;-68
2023/07/01 02:13:08;;;;;;;9.68;3.13;;;17.60;99.90;;;;;;5036902;28;20064;-68
2023/07/01 02:15:33;;;;;;;8.90;3.03;;;17.50;99.90;;;;;;5053655;28;20075;-68
2023/07/01 02:17:59;;;;;;;7.10;3.28;;;17.60;99.90;;;;;;5053191;28;20480;-68
2023/07/01 02:20:24;;;;;;;7.53;3.10;;;17.90;99.90;;;;;;5053452;28;20085;-68
2023/07/01 02:22:50;;;;;;;6.55;3.00;;;17.60;99.90;;;;;;5053495;28;20480;-68
2023/07/01 02:25:17;;;;;;;7.18;3.22;;;17.70;99.90;;;;;;5071045;28;20041;-68
2023/07/01 02:27:42;;;;;;;6.68;2.70;;;17.70;99.90;;;;;;5053594;28;20496;-68
2023/07/01 02:30:08;;;;;;;6.63;3.38;;;17.60;99.90;;;;;;5052688;28;20123;-69
2023/07/01 02:32:34;;;;;;;6.90;4.20;;;17.60;99.90;;;;;;5053339;28;20050;-69
2023/07/01 02:34:59;;;;;;;7.70;3.40;;;17.50;99.90;;;;;;5071031;28;20041;-69
2023/07/01 02:37:25;;;;;;;5.35;3.42;;;17.60;99.90;;;;;;5053703;28;20049;-69
2023/07/01 02:39:50;;;;;;;8.70;4.13;;;17.50;99.90;;;;;;5070567;28;20131;-68
2023/07/01 02:42:19;;;;;;;6.13;3.53;;;17.50;99.90;;;;;;5071342;28;20028;-68
2023/07/01 02:44:46;;;;;;;8.23;4.18;;;17.60;99.90;;;;;;5054690;28;20428;-68
2023/07/01 02:47:12;;;;;;;9.45;4.63;;;17.70;99.90;;;;;;5074946;28;20094;-68
2023/07/01 02:49:40;;;;;;;8.50;4.22;;;17.40;99.90;;;;;;5056283;28;20090;-68
2023/07/01 02:52:10;;;;;;;7.47;4.13;;;17.50;99.90;;;;;;5075172;28;20060;-68
2023/07/01 02:54:40;;;;;;;6.57;4.50;;;17.40;99.90;;;;;;5073392;28;20105;-68
2023/07/01 02:57:10;;;;;;;10.13;4.85;;;17.50;99.90;;;;;;5056983;28;20474;-69
2023/07/01 02:59:36;;;;;;;10.23;4.97;;;17.20;99.90;;;;;;5072828;28;20040;-68
2023/07/01 03:02:04;;;;;;;6.75;4.55;;;17.10;99.90;;;;;;5074654;28;20043;-68
2023/07/01 03:04:30;;;;;;;12.50;5.70;;;17.00;99.90;;;;;;5056605;28;20658;-68
2023/07/01 03:06:56;;;;;;;6.97;4.32;;;17.30;99.90;;;;;;5074308;28;20044;-68
2023/07/01 03:09:22;;;;;;;12.95;5.60;;;17.30;99.90;;;;;;5056219;28;20044;-66
2023/07/01 03:11:48;;;;;;;9.38;6.20;;;17.10;99.90;;;;;;5056423;28;20044;-68
2023/07/01 03:14:14;;;;;;;15.00;6.95;;;17.00;99.90;;;;;;5074373;28;20504;-69
2023/07/01 03:16:42;;;;;;;10.90;7.53;;;17.10;99.90;;;;;;5056481;28;20041;-68
2023/07/01 03:19:08;;;;;;;13.73;6.78;;;17.10;99.90;;;;;;5055761;28;20500;-68
2023/07/01 03:21:35;;;;;;;11.63;7.43;;;17.30;99.90;;;;;;5073017;28;20036;-68
2023/07/01 03:24:01;;;;;;;11.05;7.63;;;17.50;99.90;;;;;;5073450;28;20051;-68
2023/07/01 03:26:27;;;;;;;13.30;9.07;;;16.60;99.90;;;;;;5056226;28;20048;-68
2023/07/01 03:28:53;;;;;;;11.27;8.52;;;16.60;99.90;;;;;;5055641;28;20174;-68
2023/07/01 03:31:20;;;;;;;10.15;7.95;;;17.40;99.90;;;;;;5073851;28;20127;-68
2023/07/01 03:33:46;;;;;;;12.63;9.18;;;16.60;99.90;;;;;;5073086;28;20400;-68
2023/07/01 03:36:11;;;;;;;11.35;8.60;;;16.70;99.90;;;;;;5073819;28;20052;-68
2023/07/01 03:38:37;;;;;;;13.25;9.85;;;16.90;99.90;;;;;;5055833;28;20040;-68
2023/07/01 03:41:03;;;;;;;13.93;8.48;;;16.90;99.90;;;;;;5073604;28;20037;-68
2023/07/01 03:43:29;;;;;;;11.00;8.45;;;16.80;99.90;;;;;;5072601;28;20060;-68
2023/07/01 03:45:55;;;;;;;11.73;8.52;;;16.80;99.90;;;;;;5073646;28;20036;-68
2023/07/01 03:48:20;;;;;;;9.27;7.50;;;17.00;99.90;;;;;;5055322;28;20032;-68
2023/07/01 03:50:46;;;;;;;14.43;9.85;;;16.80;99.90;;;;;;5055399;28;20473;-68
2023/07/01 03:53:11;;;;;;;11.82;9.80;;;16.60;99.90;;;;;;5055974;28;20500;-68
2023/07/01 03:55:37;;;;;;;12.15;8.63;;;16.60;99.90;;;;;;5073309;28;20052;-68
2023/07/01 03:58:04;;;;;;;18.80;9.63;;;17.00;99.90;;;;;;5073206;28;20044;-68
2023/07/01 04:00:30;;;;;;;9.00;8.07;;;16.70;99.90;;;;;;5055315;28;20048;-68
2023/07/01 04:03:05;;;;;;;13.27;8.88;;;16.50;99.90;;;;;;5055879;28;20148;-68
2023/07/01 04:05:34;;;;;;;11.85;8.63;;;16.60;99.90;;;;;;5055397;28;20553;-68
2023/07/01 04:08:00;;;;;;;14.50;8.15;;;16.50;99.90;;;;;;5055277;28;20468;-68
2023/07/01 04:10:26;;;;;;;12.50;8.90;;;17.20;99.90;;;;;;5055151;28;20037;-67
2023/07/01 04:12:51;;;;;;;10.02;8.32;;;16.80;99.90;;;;;;5055519;28;20170;-68
2023/07/01 04:15:17;;;;;;;11.38;7.38;;;16.40;99.90;;;;;;5072032;28;20097;-68
2023/07/01 04:17:45;;;;;;;12.20;8.55;;;16.80;99.90;;;;;;5073168;28;20040;-68
2023/07/01 04:20:13;;;;;;;15.30;8.23;;;16.40;99.90;;;;;;5054959;28;20112;-68
2023/07/01 04:22:39;;;;;;;9.27;7.95;;;16.90;99.90;;;;;;5055097;28;20044;-68
2023/07/01 04:25:05;;;;;;;11.63;8.27;;;16.50;99.90;;;;;;5071672;28;20047;-68
2023/07/01 04:27:32;;;;;;;10.55;8.30;;;16.50;99.90;;;;;;5071927;28;20127;-68
2023/07/01 04:29:57;;;;;;;11.20;8.43;;;16.50;99.90;;;;;;5054423;28;20282;-68
2023/07/01 04:32:23;;;;;;;11.57;8.23;;;16.30;99.90;;;;;;5054838;28;20128;-68
2023/07/01 04:34:49;;;;;;;9.82;7.50;;;16.50;99.90;;;;;;5055123;28;20064;-68
2023/07/01 04:37:15;;;;;;;12.52;8.43;;;16.90;99.90;;;;;;5038343;28;20534;-68
2023/07/01 04:39:41;;;;;;;11.32;7.72;;;17.00;99.90;;;;;;5054145;28;20036;-67
2023/07/01 04:42:07;;;;;;;11.60;8.38;;;16.70;99.90;;;;;;5071392;28;20048;-68
2023/07/01 04:44:33;;;;;;;12.18;8.10;;;17.00;99.90;;;;;;5071680;28;20040;-68
2023/07/01 04:46:59;;;;;;;12.63;8.70;;;16.50;99.90;;;;;;5054542;28;20079;-68
2023/07/01 04:49:25;;;;;;;11.10;8.65;;;16.80;99.90;;;;;;5072029;28;20431;-67
2023/07/01 04:51:51;;;;;;;9.80;7.47;;;16.80;99.90;;;;;;5054567;28;20044;-68
2023/07/01 04:54:17;;;;;;;10.52;7.35;;;16.60;99.90;;;;;;5054497;28;20079;-68
2023/07/01 04:56:43;;;;;;;14.07;9.32;;;16.50;99.90;;;;;;5054440;28;20044;-68
2023/07/01 04:59:08;;;;;;;11.52;8.80;;;16.60;99.90;;;;;;5053930;28;20043;-68
2023/07/01 05:01:34;;;;;;;9.32;8.15;;;16.90;99.90;;;;;;5054610;28;20511;-68
2023/07/01 05:03:59;;;;;;;10.85;8.45;;;16.40;99.90;;;;;;5054535;28;20040;-68
2023/07/01 05:06:25;;;;;;;11.88;10.25;;;16.80;99.90;;;;;;5072171;28;20503;-68
2023/07/01 05:08:51;;;;;;;11.55;8.45;;;16.50;99.90;;;;;;5036266;28;20107;-68
2023/07/01 05:11:17;;;;;;;13.32;9.52;;;16.50;99.90;;;;;;5071936;28;20044;-68
2023/07/01 05:13:44;;;;;;;12.80;9.10;;;16.80;99.90;;;;;;5054413;28;20130;-68
2023/07/01 05:16:10;;;;;;;13.23;9.40;;;16.60;99.90;;;;;;5054039;28;20041;-68
2023/07/01 05:18:35;;;;;;;10.93;8.10;;;16.70;99.90;;;;;;5071726;28;20060;-68
2023/07/01 05:21:01;;;;;;;11.00;8.93;;;17.50;99.90;;;;;;5053669;28;20048;-68
2023/07/01 05:23:27;;;;;;;13.75;10.32;;;16.60;99.90;;;;;;5054142;28;20047;-68
2023/07/01 05:25:52;;;;;;;9.50;8.38;;;16.80;99.90;;;;;;5071785;28;20094;-68
2023/07/01 05:28:18;;;;;;;11.38;9.35;;;16.50;99.90;;;;;;5071480;28;20109;-68
2023/07/01 05:30:45;;;;;;;11.35;8.55;;;17.20;99.90;;;;;;5053560;28;20098;-68
2023/07/01 05:33:11;;;;;;;11.13;8.68;;;17.20;99.90;;;;;;5070862;28;20078;-68
2023/07/01 05:35:37;;;;;;;12.35;8.95;;;17.20;99.90;;;;;;5071795;28;20071;-68
2023/07/01 05:38:10;;;;;;;11.18;8.73;;;16.40;99.90;;;;;;5070292;28;20067;-68
2023/07/01 05:40:36;;;;;;;9.82;7.22;;;16.80;99.90;;;;;;5053969;28;20094;-68
2023/07/01 05:43:03;;;;;;;9.40;8.45;;;17.20;99.90;;;;;;5071616;28;20036;-68
2023/07/01 05:45:29;;;;;;;10.30;9.20;;;16.80;99.90;;;;;;5071690;28;20076;-68
2023/07/01 05:47:55;;;;;;;8.63;7.72;;;16.70;99.90;;;;;;5053641;28;20040;-69
2023/07/01 05:50:21;;;;;;;13.23;10.52;;;17.20;99.90;;;;;;5071025;28;20043;-68
2023/07/01 05:52:46;;;;;;;11.02;8.65;;;16.60;99.90;;;;;;5071581;28;20083;-68
2023/07/01 05:55:12;;;;;;;10.65;9.55;;;16.80;99.90;;;;;;5071662;28;20085;-68
2023/07/01 05:57:38;;;;;;;9.98;8.02;;;17.30;99.90;;;;;;5053871;28;20032;-67
2023/07/01 06:00:04;;;;;;;11.10;9.63;;;17.20;99.90;;;;;;5070876;28;20241;-68
2023/07/01 06:02:30;;;;;;;10.55;9.18;;;16.70;99.90;;;;;;5053772;28;20404;-67
2023/07/01 06:04:56;;;;;;;11.40;9.98;;;16.50;99.90;;;;;;5071524;28;20036;-68
2023/07/01 06:07:22;;;;;;;10.07;9.07;;;16.70;99.90;;;;;;5071570;28;20044;-68
2023/07/01 06:09:48;;;;;;;9.05;8.18;;;16.90;99.90;;;;;;5053109;28;20044;-67
2023/07/01 06:12:14;;;;;;;11.13;9.38;;;16.90;99.90;;;;;;5071267;28;20043;-68
2023/07/01 06:14:40;;;;;;;11.75;8.45;;;17.80;99.90;;;;;;5053447;28;20036;-68
2023/07/01 06:17:06;;;;;;;10.70;9.60;;;17.60;99.90;;;;;;5053579;28;20457;-68
2023/07/01 06:19:32;;;;;;;9.25;7.63;;;17.00;99.90;;;;;;5070628;28;20047;-69
2023/07/01 06:21:57;;;;;;;7.85;6.80;;;17.00;99.90;;;;;;5057448;28;20041;-68
2023/07/01 06:24:23;;;;;;;9.40;8.50;;;17.70;99.90;;;;;;5057287;28;20482;-68
2023/07/01 06:26:48;;;;;;;9.60;6.93;;;17.00;99.90;;;;;;5075280;28;20318;-68
2023/07/01 06:29:14;;;;;;;10.70;8.23;;;17.70;99.90;;;;;;5074760;28;20040;-68
2023/07/01 06:31:41;;;;;;;9.20;7.32;;;17.10;99.90;;;;;;5057370;28;20191;-68
2023/07/01 06:34:15;;;;;;;8.48;7.22;;;17.30;99.90;;;;;;5057227;28;20044;-68
2023/07/01 06:36:41;;;;;;;8.55;7.55;;;17.70;99.90;;;;;;5057508;28;20040;-68
2023/07/01 06:39:07;;;;;;;6.47;5.82;;;17.80;99.90;;;;;;5075057;28;20040;-68
2023/07/01 06:41:33;;;;;;;8.27;7.47;;;17.60;99.90;;;;;;5074936;28;20484;-68
2023/07/01 06:43:59;;;;;;;8.85;7.90;;;17.80;99.90;;;;;;5077048;28;20072;-67
2023/07/01 06:46:25;;;;;;;6.60;5.90;;;17.60;99.90;;;;;;5075683;28;20040;-68
2023/07/01 06:48:51;;;;;;;8.07;7.15;;;18.00;99.90;;;;;;5040163;28;20412;-67
2023/07/01 06:51:17;;;;;;;9.45;5.78;;;17.00;99.90;;;;;;5057256;28;20032;-68
2023/07/01 06:53:42;;;;;;;6.95;6.15;;;17.80;99.90;;;;;;5057264;28;20052;-68
2023/07/01 06:56:09;;;;;;;8.20;6.38;;;17.20;99.90;;;;;;5057288;28;20401;-68
2023/07/01 06:58:35;;;;;;;9.85;6.63;;;17.00;99.90;;;;;;5073750;28;20564;-68
2023/07/01 07:01:01;;;;;;;5.75;5.15;;;17.80;99.90;;;;;;5056647;28;20054;-68
2023/07/01 07:03:26;;;;;;;8.13;5.60;;;17.90;99.90;;;;;;5057128;28;20036;-68
2023/07/01 07:05:54;;;;;;;6.10;5.35;;;17.80;99.90;;;;;;5057142;28;20040;-67
2023/07/01 07:08:20;;;;;;;6.18;5.55;;;17.30;99.90;;;;;;5074311;28;20106;-69
2023/07/01 07:10:46;;;;;;;9.63;5.93;;;17.30;99.90;;;;;;5056471;28;20094;-68
2023/07/01 07:13:12;;;;;;;5.43;4.93;;;17.90;99.90;;;;;;5074827;28;20044;-68
2023/07/01 07:15:38;;;;;;;6.32;5.28;;;17.20;99.90;;;;;;5074975;28;20036;-68
2023/07/01 07:18:07;;;;;;;5.22;4.72;;;17.50;99.90;;;;;;5074174;28;20127;-68
2023/07/01 07:20:34;;;;;;;5.40;4.90;;;18.00;99.90;;;;;;5074673;28;20036;-69
2023/07/01 07:23:01;;;;;;;5.13;4.68;;;18.00;99.90;;;;;;5073237;28;20044;-69
2023/07/01 07:25:27;;;;;;;4.97;4.57;;;17.40;99.90;;;;;;5056382;28;20048;-68
2023/07/01 07:27:52;;;;;;;4.95;4.43;;;17.40;99.90;;;;;;5074285;28;20441;-68
2023/07/01 07:30:18;;;;;;;5.78;4.57;;;18.00;99.90;;;;;;5055979;28;20543;-68
2023/07/01 07:32:44;;;;;;;5.13;4.43;;;;;;;;;;5073622;28;20071;-68
2023/07/01 07:35:10;;;;;;;4.10;3.65;;;18.00;99.90;;;;;;5074438;28;20120;-68
2023/07/01 07:37:36;;;;;;;4.43;4.03;;;18.60;99.90;;;;;;5056519;28;20128;-69
2023/07/01 07:40:05;;;;;;;4.35;3.95;;;17.50;99.90;;;;;;5055917;28;20448;-68
2023/07/01 07:42:31;;;;;;;4.20;3.80;;;18.20;99.90;;;;;;5074512;28;20068;-69
2023/07/01 07:44:57;;;;;;;4.88;3.63;;;18.30;99.90;;;;;;5073171;28;20044;-69
2023/07/01 07:47:23;;;;;;;5.18;3.60;;;18.40;99.90;;;;;;5056261;28;20489;-69
2023/07/01 07:49:49;;;;;;;3.83;3.42;;;17.60;99.90;;;;;;5038917;28;20036;-69
2023/07/01 07:52:14;;;;;;;3.28;3.03;;;18.40;99.90;;;;;;5073841;28;20032;-68
2023/07/01 07:54:44;;;;;;;3.97;3.67;;;18.00;99.90;;;;;;5073888;28;20039;-68
2023/07/01 07:57:10;;;;;;;3.60;3.15;;;17.90;99.90;;;;;;5056317;28;20045;-68
2023/07/01 07:59:36;;;;;;;3.58;3.28;;;18.40;99.90;;;;;;5073823;28;20044;-67
2023/07/01 08:02:02;;;;;;;3.67;3.30;;;18.10;99.90;;;;;;5056158;28;20045;-67
2023/07/01 08:04:27;;;;;;;3.80;3.28;;;18.60;99.90;;;;;;5073782;28;20036;-68
2023/07/01 08:06:53;;;;;;;3.88;3.58;;;18.20;99.90;;;;;;5055532;28;20033;-67
2023/07/01 08:09:19;;;;;;;3.55;3.25;;;18.20;99.90;;;;;;5073049;28;20040;-67
2023/07/01 08:11:45;;;;;;;4.15;3.72;;;18.30;99.90;;;;;;5073620;28;20036;-68
2023/07/01 08:14:11;;;;;;;3.35;3.05;;;18.50;99.90;;;;;;5055902;28;20086;-68
2023/07/01 08:16:37;;;;;;;3.65;3.30;;;18.40;99.90;;;;;;5073568;28;20036;-68
2023/07/01 08:19:03;;;;;;;3.13;2.83;;;18.10;99.90;;;;;;5072868;28;20561;-68
2023/07/01 08:21:29;;;;;;;3.10;2.80;;;18.10;99.90;;;;;;5072967;28;20124;-67
2023/07/01 08:23:55;;;;;;;2.90;2.63;;;17.90;99.90;;;;;;5073291;28;20131;-68
2023/07/01 08:26:20;;;;;;;3.40;3.10;;;18.40;99.90;;;;;;5055342;28;20048;-68
2023/07/01 08:28:47;;;;;;;3.13;2.83;;;18.60;99.90;;;;;;5054937;28;20132;-68
2023/07/01 08:31:13;;;;;;;2.83;2.50;;;18.30;99.90;;;;;;5073418;28;20120;-67
2023/07/01 08:33:39;;;;;;;4.18;2.40;;;18.10;99.90;;;;;;5073329;28;20040;-66
2023/07/01 08:36:05;;;;;;;2.40;2.20;;;17.90;99.90;;;;;;5073134;28;20077;-67
2023/07/01 08:38:30;;;;;;;3.03;1.95;;;18.40;99.90;;;;;;5072739;28;20108;-68
2023/07/01 08:41:02;;;;;;;2.90;2.03;;;18.60;99.90;;;;;;5054965;28;20052;-69
2023/07/01 08:43:30;;;;;;;2.83;2.03;;;19.40;99.90;;;;;;5071454;28;20043;-68
2023/07/01 08:46:03;;;;;;;2.03;1.70;;;18.50;99.90;;;;;;5072991;28;20051;-68
2023/07/01 08:48:32;;;;;;;1.70;1.55;;;18.60;99.90;;;;;;5054365;28;20404;-68
2023/07/01 08:51:25;;;;;;;1.42;1.33;;;18.50;99.90;;;;;;5037962;28;20052;-68
2023/07/01 08:53:52;;;;;;;;;;;18.90;99.90;;;;;;5072027;28;20028;-68
2023/07/01 08:56:21;;;;;;;1.05;0.95;;;19.30;99.90;;;;;;5072730;28;19964;-69
2023/07/01 08:58:48;;;;;;;1.65;1.10;;;18.00;99.90;;;;;;5037791;28;20093;-68
2023/07/01 09:01:15;;;;;;;1.20;0.95;;;18.30;99.90;;;;;;5072714;28;20381;-69
2023/07/01 09:03:41;;;;;;;1.23;0.93;;;19.30;99.90;;;;;;5073179;28;20044;-68
2023/07/01 09:06:07;;;;;;;0.70;0.70;;;18.70;99.90;;;;;;5054639;28;20037;-69
2023/07/01 09:08:39;;;;;;;0.93;0.57;;;19.30;99.90;;;;;;5054000;28;20119;-69
2023/07/01 09:11:15;;;;;;;1.20;0.60;;;18.40;99.90;;;;;;5071998;28;20032;-69
2023/07/01 09:13:42;;;;;;;1.02;0.65;;;19.30;99.90;;;;;;5037522;28;20044;-68
2023/07/01 09:16:08;;;;;;;0.88;0.88;;;20.10;99.90;;;;;;5054488;28;20040;-69
2023/07/01 09:18:35;;;;;;;0.70;0.70;;;19.00;99.90;;;;;;5071774;28;20051;-69
2023/07/01 09:21:01;;;;;;;1.15;1.10;;;19.30;99.90;;;;;;5053729;28;20097;-69
2023/07/01 09:23:32;;;;;;;2.88;1.60;;;18.50;99.90;;;;;;5054737;28;20450;-69
2023/07/01 09:26:17;;;;;;;3.58;2.25;;;19.60;99.90;;;;;;5053786;28;20086;-69
2023/07/01 09:28:45;;;;;;;3.25;2.10;;;19.60;99.90;;;;;;5053813;28;20078;-69
2023/07/01 09:31:13;;;;;;;2.70;2.00;;;18.60;99.90;;;;;;5053758;28;20036;-69
2023/07/01 09:33:39;;;;;;;4.38;2.20;;;18.70;99.90;;;;;;5070803;28;20049;-68
2023/07/01 09:36:07;;;;;;;2.00;1.52;;;18.20;99.90;;;;;;5070604;28;20047;-69
2023/07/01 09:38:34;;;;;;;2.03;1.75;;;18.90;99.90;;;;;;5053488;28;20484;-69
2023/07/01 09:41:26;;;;;;;4.25;2.28;;;19.10;99.90;;;;;;5053599;28;20040;-69
2023/07/01 09:43:54;;;;;;;2.28;2.08;;;18.70;99.90;;;;;;5067461;28;20082;-69
2023/07/01 09:46:20;;;;;;;2.90;2.50;;;19.40;99.90;;;;;;5053622;28;20049;-69
2023/07/01 09:48:56;;;;;;;4.60;2.88;;;18.50;99.90;;;;;;5053373;28;20055;-69
2023/07/01 09:51:25;;;;;;;5.30;3.30;;;19.60;99.90;;;;;;5070219;28;20036;-68
2023/07/01 09:53:52;;;;;;;4.82;2.70;;;19.90;99.90;;;;;;5052906;28;20047;-69
2023/07/01 09:56:19;;;;;;;3.53;3.08;;;20.00;99.90;;;;;;5053596;28;20036;-69
2023/07/01 09:58:47;;;;;;;3.67;3.15;;;19.70;99.90;;;;;;5053114;28;20057;-69
2023/07/01 10:01:14;;;;;;;3.92;3.53;;;20.00;99.90;;;;;;5071417;28;20053;-69
2023/07/01 10:03:41;;;;;;;7.00;4.05;;;20.20;99.90;;;;;;5071311;28;20036;-68
2023/07/01 10:06:07;;;;;;;5.03;4.53;;;20.10;99.90;;;;;;5071514;28;20404;-69
2023/07/01 10:08:33;;;;;;;4.55;4.15;;;19.90;99.90;;;;;;5053062;28;20519;-69
2023/07/01 10:11:09;;;;;;;4.72;4.28;;;20.00;99.90;;;;;;5053432;28;20510;-69
2023/07/01 10:13:52;;;;;;;5.85;5.25;;;20.00;99.90;;;;;;5037184;28;20606;-67
2023/07/01 10:16:19;;;;;;;5.90;5.32;;;20.30;99.90;;;;;;5070258;28;20044;-69
2023/07/01 10:18:44;;;;;;;6.20;4.57;;;20.20;99.90;;;;;;5070993;28;20048;-69
2023/07/01 10:21:31;;;;;;;5.63;4.32;;;18.90;99.90;;;;;;5053339;28;20123;-69
2023/07/01 10:23:59;;;;;;;5.40;3.55;;;19.80;99.90;;;;;;5053181;28;20084;-69
2023/07/01 10:26:35;;;;;;;5.03;3.80;;;18.80;99.90;;;;;;5071142;28;20044;-69
2023/07/01 10:29:36;;;;;;;4.57;3.72;;;19.20;99.90;;;;;;5052703;28;20087;-69
2023/07/01 10:32:08;;;;;;;4.78;3.75;;;19.90;99.90;;;;;;5053049;28;20081;-69
2023/07/01 10:34:52;;;;;;;5.95;3.95;;;19.90;99.90;;;;;;5053216;28;20127;-69
2023/07/01 10:37:26;;;;;;;4.25;3.60;;;18.90;99.90;;;;;;5071373;28;20101;-69
2023/07/01 10:39:56;;;;;;;3.58;3.28;;;19.30;99.90;;;;;;5036295;28;20412;-69
2023/07/01 10:42:33;;;;;;;4.78;3.88;;;19.70;99.90;;;;;;5070020;28;20044;-69
2023/07/01 10:45:10;;;;;;;5.85;3.60;;;19.50;99.90;;;;;;5070721;28;20053;-69
2023/07/01 10:47:37;;;;;;;3.72;3.35;;;19.30;99.90;;;;;;5071312;28;20044;-69
2023/07/01 10:50:08;;;;;;;4.90;4.00;;;19.10;99.90;;;;;;5068946;28;20040;-68
2023/07/01 10:52:56;;;;;;;6.10;4.30;;;19.50;99.90;;;;;;5053177;28;20068;-69
2023/07/01 10:55:34;;;;;;;4.65;4.25;;;20.20;99.90;;;;;;5071507;28;20163;-69
2023/07/01 10:58:21;;;;;;;6.20;5.10;;;20.00;99.90;;;;;;5070731;28;20174;-69
2023/07/01 11:00:57;;;;;;;7.25;5.03;;;20.20;99.90;;;;;;5053006;28;20400;-69
2023/07/01 11:03:36;;;;;;;7.75;6.10;;;19.80;99.90;;;;;;5053252;28;20082;-69
2023/07/01 11:06:10;;;;;;;6.72;5.28;;;19.70;99.90;;;;;;5072577;28;20040;-69
2023/07/01 11:08:48;;;;;;;9.30;6.53;;;19.70;99.90;;;;;;5056793;28;20083;-69
2023/07/01 11:11:22;;;;;;;9.07;6.82;;;20.40;99.90;;;;;;5073270;28;20411;-69
2023/07/01 11:14:14;;;;;;;7.95;6.43;;;19.70;99.90;;;;;;5074563;28;20043;-68
2023/07/01 11:16:40;;;;;;;8.07;6.30;;;20.00;99.90;;;;;;5069639;28;20561;-69
2023/07/01 11:19:09;;;;;;;13.25;6.70;;;19.30;99.90;;;;;;5073869;28;20044;-69
2023/07/01 11:21:35;;;;;;;7.55;6.30;;;19.20;99.90;;;;;;5074072;28;20496;-69
2023/07/01 11:24:09;;;;;;;8.18;6.45;;;20.00;99.90;;;;;;5072990;28;20412;-69
2023/07/01 11:26:40;;;;;;;12.23;5.68;;;20.10;99.90;;;;;;5056332;28;20135;-69
2023/07/01 11:29:10;;;;;;;10.07;6.55;;;20.00;99.90;;;;;;5073540;28;20037;-69
2023/07/01 11:31:37;;;;;;;11.07;6.25;;;20.00;99.90;;;;;;5039557;28;20087;-69
2023/07/01 11:34:03;;;;;;;7.68;6.63;;;19.70;99.90;;;;;;5055992;28;20037;-69
2023/07/01 11:36:38;;;;;;;7.93;6.20;;;20.30;99.90;;;;;;5056114;28;20048;-69
2023/07/01 11:39:10;;;;;;;13.38;6.53;;;20.40;99.90;;;;;;5073811;28;20044;-69
2023/07/01 11:41:37;;;;;;;12.95;6.40;;;20.40;99.90;;;;;;5074195;28;20066;-69
2023/07/01 11:44:06;;;;;;;7.10;5.68;;;20.60;99.90;;;;;;5072651;28;20032;-69
2023/07/01 11:46:33;;;;;;;8.35;5.85;;;19.90;99.90;;;;;;5055710;28;20052;-69
2023/07/01 11:49:15;;;;;;;7.60;6.35;;;20.10;99.90;;;;;;5038680;28;20041;-69
2023/07/01 11:51:47;;;;;;;10.07;5.43;;;20.50;99.90;;;;;;5072293;28;20041;-69
2023/07/01 11:54:14;;;;;;;7.97;4.88;;;19.90;99.90;;;;;;5055586;28;20540;-69
2023/07/01 11:56:40;;;;;;;7.30;4.75;;;20.70;99.90;;;;;;5074488;28;20044;-69
2023/07/01 11:59:05;;;;;;;5.60;4.60;;;20.20;99.90;;;;;;5073240;28;20416;-69
2023/07/01 12:01:32;;;;;;;8.48;5.07;;;20.90;99.90;;;;;;5056015;28;20063;-69
2023/07/01 12:03:58;;;;;;;4.18;3.20;;;20.90;99.90;;;;;;5055960;28;20041;-69
2023/07/01 12:06:25;;;;;;;6.28;3.25;;;20.50;99.90;;;;;;5039125;28;20123;-69
2023/07/01 12:08:55;;;;;;;3.13;2.83;;;20.30;99.90;;;;;;5055356;28;20515;-69
2023/07/01 12:11:22;;;;;;;6.47;3.75;;;20.30;99.90;;;;;;5055534;28;20078;-69
2023/07/01 12:13:49;;;;;;;3.70;3.30;;;20.30;99.90;;;;;;5055730;28;20039;-69
2023/07/01 12:16:15;;;;;;;7.65;4.18;;;20.00;99.90;;;;;;5055830;28;20048;-69
2023/07/01 12:18:40;;;;;;;4.72;3.67;;;20.50;99.90;;;;;;5072475;28;20044;-69
2023/07/01 12:21:06;;;;;;;10.88;4.30;;;20.20;99.90;;;;;;5055314;28;20043;-69
2023/07/01 12:23:44;;;;;;;5.90;3.05;;;20.30;99.90;;;;;;5073901;28;20090;-69
2023/07/01 12:26:11;;;;;;;5.65;3.58;;;20.60;99.90;;;;;;5055562;28;20040;-68
2023/07/01 12:28:38;;;;;;;3.22;2.90;;;20.80;99.90;;;;;;5055368;28;20111;-68
2023/07/01 12:31:05;;;;;;;7.60;3.38;;;20.70;99.90;;;;;;5055478;28;20047;-68
2023/07/01 12:33:31;;;;;;;3.78;3.03;;;20.50;99.90;;;;;;5072122;28;20472;-68
2023/07/01 12:35:57;;;;;;;8.60;3.40;;;20.50;99.90;;;;;;5056125;28;20361;-69
2023/07/01 12:38:23;;;;;;;8.00;3.03;;;20.30;99.90;;;;;;5055500;28;20076;-68
2023/07/01 12:40:50;;;;;;;7.53;3.33;;;20.40;99.90;;;;;;5055232;28;20085;-68
2023/07/01 12:43:15;;;;;;;5.03;2.45;;;20.10;99.90;;;;;;5056485;28;20044;-68
2023/07/01 12:45:41;;;;;;;3.58;2.42;;;19.90;99.90;;;;;;5057333;28;20063;-69
2023/07/01 12:48:07;;;;;;;4.60;2.72;;;20.20;99.90;;;;;;5056112;28;20573;-68
2023/07/01 12:50:32;;;;;;;3.25;2.35;;;20.40;99.90;;;;;;5073674;28;20044;-68